Time;durP1;ratioP1;P1;durP2;ratioP2;P2;SDS_P1;SDS_P2;PMS_P1;PMS_P2;Temp;Humidity;BMP_temperature;BMP_pressure;BME280_temperature;BME280_humidity;BME280_pressure;Samples;Min_cycle;Max_cycle;Signal;HPM_P1;HPM_P2
2021/08/04 00:02:24;;;;;;;6.63;2.08;;;;;;;;;;5112433;27;20402;-67
2021/08/04 00:04:50;;;;;;;4.40;2.47;;;;;;;;;;5108230;27;20028;-67
2021/08/04 00:07:16;;;;;;;2.28;1.90;;;;;;;;;;5115939;27;20039;-67
2021/08/04 00:09:43;;;;;;;4.50;2.17;;;;;;;;;;5110833;27;20058;-68
2021/08/04 00:12:10;;;;;;;3.50;2.70;;;;;;;;;;5111213;27;20072;-68
2021/08/04 00:14:36;;;;;;;3.20;2.10;;;;;;;;;;5111237;27;20445;-67
2021/08/04 00:17:03;;;;;;;4.47;2.08;;;;;;;;;;5116381;27;20031;-68
2021/08/04 00:19:30;;;;;;;6.72;2.45;;;;;;;;;;5113508;27;20528;-67
2021/08/04 00:21:56;;;;;;;6.10;2.42;;;;;;;;;;5105083;27;20031;-67
2021/08/04 00:24:22;;;;;;;4.18;2.45;;;;;;;;;;5114331;27;20407;-67
2021/08/04 00:26:48;;;;;;;4.78;2.45;;;;;;;;;;5104446;27;20078;-67
2021/08/04 00:29:14;;;;;;;2.60;2.25;;;;;;;;;;5111987;27;20386;-67
2021/08/04 00:31:40;;;;;;;3.10;2.47;;;;;;;;;;5104692;27;20115;-67
2021/08/04 00:34:07;;;;;;;4.05;2.45;;;;;;;;;;5118136;27;20487;-67
2021/08/04 00:36:33;;;;;;;2.92;2.33;;;;;;;;;;5107466;28;20075;-67
2021/08/04 00:38:59;;;;;;;4.82;2.67;;;;;;;;;;5110603;27;20521;-67
2021/08/04 00:41:26;;;;;;;5.03;2.50;;;;;;;;;;5106285;28;20039;-67
2021/08/04 00:43:52;;;;;;;3.13;2.70;;;;;;;;;;5111077;28;20073;-67
2021/08/04 00:46:19;;;;;;;3.78;2.60;;;;;;;;;;5106908;28;20036;-68
2021/08/04 00:48:45;;;;;;;3.88;2.97;;;;;;;;;;5108290;28;20090;-68
2021/08/04 00:51:12;;;;;;;3.35;2.72;;;;;;;;;;5109091;28;20028;-68
2021/08/04 00:53:38;;;;;;;4.90;2.38;;;;;;;;;;5118600;28;20123;-67
2021/08/04 00:56:07;;;;;;;2.90;2.60;;;;;;;;;;5109636;28;20131;-67
2021/08/04 00:58:38;;;;;;;2.95;2.60;;;;;;;;;;5085128;28;20048;-67
2021/08/04 01:01:13;;;;;;;4.90;2.45;;;;;;;;;;5115500;28;20141;-67
2021/08/04 01:03:42;;;;;;;4.20;2.80;;;;;;;;;;5107140;27;20465;-67
2021/08/04 01:06:11;;;;;;;3.80;2.58;;;;;;;;;;5116355;27;20142;-67
2021/08/04 01:08:39;;;;;;;3.70;2.53;;;;;;;;;;5107441;27;20067;-67
2021/08/04 01:11:08;;;;;;;4.65;2.78;;;;;;;;;;5119145;27;20544;-67
2021/08/04 01:13:38;;;;;;;5.95;3.42;;;;;;;;;;5113544;27;20067;-67
2021/08/04 01:16:18;;;;;;;3.72;3.08;;;;;;;;;;5111337;27;20035;-67
2021/08/04 01:19:06;;;;;;;6.40;3.03;;;;;;;;;;5108648;27;20060;-67
2021/08/04 01:21:53;;;;;;;4.50;3.00;;;;;;;;;;5111949;27;20031;-67
2021/08/04 01:24:33;;;;;;;4.32;3.38;;;;;;;;;;5115764;27;20570;-68
2021/08/04 01:27:00;;;;;;;4.43;3.03;;;;;;;;;;5119506;27;20044;-68
2021/08/04 01:29:26;;;;;;;4.68;3.28;;;;;;;;;;5104039;27;20031;-68
2021/08/04 01:31:56;;;;;;;6.25;3.30;;;;;;;;;;5112650;27;20105;-68
2021/08/04 01:34:22;;;;;;;4.13;3.33;;;;;;;;;;5112697;27;20035;-68
2021/08/04 01:36:50;;;;;;;3.88;3.45;;;;;;;;;;5119002;27;20042;-68
2021/08/04 01:39:16;;;;;;;5.35;3.30;;;;;;;;;;5108988;27;20059;-68
2021/08/04 01:41:43;;;;;;;4.03;3.63;;;;;;;;;;5113359;27;20479;-68
2021/08/04 01:44:10;;;;;;;4.45;3.30;;;;;;;;;;5116267;27;20054;-68
2021/08/04 01:46:36;;;;;;;3.55;3.22;;;;;;;;;;5117207;27;20414;-68
2021/08/04 01:49:03;;;;;;;3.45;3.15;;;;;;;;;;5105846;27;20070;-68
2021/08/04 01:51:30;;;;;;;4.05;3.60;;;;;;;;;;5097646;27;20036;-68
2021/08/04 01:53:57;;;;;;;3.70;3.30;;;;;;;;;;5107968;27;20047;-68
2021/08/04 01:56:24;;;;;;;3.55;3.25;;;;;;;;;;5113428;27;20115;-68
2021/08/04 01:58:50;;;;;;;3.58;3.28;;;;;;;;;;5105903;27;20416;-68
2021/08/04 02:01:16;;;;;;;6.53;3.60;;;;;;;;;;5121295;27;20038;-68
2021/08/04 02:03:47;;;;;;;4.75;3.38;;;;;;;;;;5120016;27;20089;-68
2021/08/04 02:06:32;;;;;;;4.45;3.58;;;;;;;;;;5106197;27;20051;-68
2021/08/04 02:09:06;;;;;;;4.00;3.60;;;;;;;;;;5108065;27;20028;-67
2021/08/04 02:11:58;;;;;;;4.25;3.60;;;;;;;;;;5115027;27;20043;-68
2021/08/04 02:14:36;;;;;;;4.68;4.07;;;;;;;;;;5108620;27;20074;-68
2021/08/04 02:17:02;;;;;;;4.82;4.28;;;;;;;;;;5114560;27;20031;-68
2021/08/04 02:19:30;;;;;;;6.35;3.63;;;;;;;;;;5108784;27;20031;-68
2021/08/04 02:22:01;;;;;;;4.30;3.90;;;;;;;;;;5108156;27;20043;-68
2021/08/04 02:24:30;;;;;;;4.82;3.90;;;;;;;;;;5118408;27;20043;-68
2021/08/04 02:26:57;;;;;;;7.03;4.22;;;;;;;;;;5108541;27;20042;-68
2021/08/04 02:29:24;;;;;;;4.20;3.80;;;;;;;;;;5113785;27;20036;-68
2021/08/04 02:31:50;;;;;;;4.53;3.80;;;;;;;;;;5113236;27;20468;-68
2021/08/04 02:34:19;;;;;;;4.55;4.00;;;;;;;;;;5121220;27;20035;-68
2021/08/04 02:36:45;;;;;;;6.15;4.05;;;;;;;;;;5109633;27;20046;-68
2021/08/04 02:39:11;;;;;;;4.32;3.92;;;;;;;;;;5112447;27;20028;-68
2021/08/04 02:41:38;;;;;;;5.38;4.03;;;;;;;;;;5111208;27;20036;-68
2021/08/04 02:44:04;;;;;;;5.13;4.57;;;;;;;;;;5110250;27;20222;-68
2021/08/04 02:46:32;;;;;;;5.53;3.90;;;;;;;;;;5106891;27;20059;-68
2021/08/04 02:48:58;;;;;;;4.90;4.40;;;;;;;;;;5113624;27;20043;-68
2021/08/04 02:51:24;;;;;;;6.03;3.90;;;;;;;;;;5113458;27;20032;-68
2021/08/04 02:53:58;;;;;;;6.45;4.55;;;;;;;;;;5108939;27;20043;-68
2021/08/04 02:56:24;;;;;;;6.40;4.47;;;;;;;;;;5107595;27;20066;-68
2021/08/04 02:58:51;;;;;;;4.38;3.83;;;;;;;;;;5111721;27;20031;-68
2021/08/04 03:01:17;;;;;;;6.15;4.00;;;;;;;;;;5115712;27;20451;-68
2021/08/04 03:03:44;;;;;;;8.13;4.72;;;;;;;;;;5111085;27;20050;-68
2021/08/04 03:06:10;;;;;;;4.88;4.38;;;;;;;;;;5114812;27;20057;-67
2021/08/04 03:08:37;;;;;;;5.20;4.43;;;;;;;;;;5112276;27;20096;-68
2021/08/04 03:11:04;;;;;;;6.40;4.35;;;;;;;;;;5108948;27;20090;-68
2021/08/04 03:13:30;;;;;;;6.00;4.18;;;;;;;;;;5108263;27;20039;-68
2021/08/04 03:15:56;;;;;;;5.38;4.53;;;;;;;;;;5115759;27;20032;-68
2021/08/04 03:18:23;;;;;;;7.50;4.32;;;;;;;;;;5109325;27;20046;-68
2021/08/04 03:20:49;;;;;;;5.00;4.20;;;;;;;;;;5107001;27;20426;-67
2021/08/04 03:23:15;;;;;;;5.30;4.57;;;;;;;;;;5106918;27;20484;-67
2021/08/04 03:25:41;;;;;;;5.22;4.00;;;;;;;;;;5117033;27;20040;-67
2021/08/04 03:28:07;;;;;;;5.90;5.18;;;;;;;;;;5111034;27;20427;-67
2021/08/04 03:30:33;;;;;;;5.72;4.60;;;;;;;;;;5114737;27;20446;-67
2021/08/04 03:32:59;;;;;;;4.70;4.20;;;;;;;;;;5109168;27;20503;-67
2021/08/04 03:35:26;;;;;;;5.65;4.82;;;;;;;;;;5118912;27;20055;-67
2021/08/04 03:37:52;;;;;;;5.65;4.70;;;;;;;;;;5108947;27;20039;-67
2021/08/04 03:40:18;;;;;;;5.75;4.45;;;;;;;;;;5114346;27;20037;-67
2021/08/04 03:42:44;;;;;;;4.63;4.22;;;;;;;;;;5108834;27;20498;-67
2021/08/04 03:45:11;;;;;;;5.03;4.50;;;;;;;;;;5112833;27;20058;-67
2021/08/04 03:47:37;;;;;;;7.25;4.93;;;;;;;;;;5113630;27;20078;-67
2021/08/04 03:50:09;;;;;;;5.80;4.60;;;;;;;;;;5103566;27;20179;-68
2021/08/04 03:52:35;;;;;;;5.60;4.30;;;;;;;;;;5114743;27;20040;-68
2021/08/04 03:55:01;;;;;;;5.15;4.60;;;;;;;;;;5110188;27;20449;-68
2021/08/04 03:57:28;;;;;;;5.95;4.13;;;;;;;;;;5106367;27;20027;-68
2021/08/04 03:59:54;;;;;;;6.65;4.43;;;;;;;;;;5106873;27;20077;-68
2021/08/04 04:02:20;;;;;;;4.97;4.35;;;;;;;;;;5115305;27;20256;-68
2021/08/04 04:04:46;;;;;;;5.72;3.80;;;;;;;;;;5105435;27;20058;-68
2021/08/04 04:07:13;;;;;;;5.18;4.10;;;;;;;;;;5107905;27;20036;-68
2021/08/04 04:09:39;;;;;;;4.38;3.72;;;;;;;;;;5106443;27;20494;-68
2021/08/04 04:12:06;;;;;;;4.75;4.25;;;;;;;;;;5120064;27;20051;-68
2021/08/04 04:14:32;;;;;;;4.72;4.05;;;;;;;;;;5107798;27;20074;-68
2021/08/04 04:16:58;;;;;;;5.53;4.30;;;;;;;;;;5108567;27;20442;-68
2021/08/04 04:19:24;;;;;;;5.28;4.75;;;;;;;;;;5109461;27;20736;-68
2021/08/04 04:21:50;;;;;;;5.43;3.80;;;;;;;;;;5114492;27;20866;-68
2021/08/04 04:24:17;;;;;;;4.43;4.03;;;;;;;;;;5100716;27;20077;-68
2021/08/04 04:26:43;;;;;;;3.97;3.67;;;;;;;;;;5112417;27;20102;-68
2021/08/04 04:29:09;;;;;;;5.95;4.18;;;;;;;;;;5116652;27;20032;-68
2021/08/04 04:31:35;;;;;;;6.05;4.22;;;;;;;;;;5105157;27;20047;-67
2021/08/04 04:34:03;;;;;;;5.82;4.20;;;;;;;;;;5107729;27;20040;-67
2021/08/04 04:36:29;;;;;;;4.28;3.65;;;;;;;;;;5108881;28;20127;-67
2021/08/04 04:38:55;;;;;;;5.47;3.97;;;;;;;;;;5116887;27;20521;-67
2021/08/04 04:41:21;;;;;;;5.85;4.45;;;;;;;;;;5104060;27;20040;-67
2021/08/04 04:43:47;;;;;;;7.20;4.38;;;;;;;;;;5111845;28;20043;-67
2021/08/04 04:46:13;;;;;;;5.38;4.13;;;;;;;;;;5094438;28;20072;-67
2021/08/04 04:48:40;;;;;;;4.32;3.55;;;;;;;;;;5113355;28;20127;-67
2021/08/04 04:51:07;;;;;;;4.10;3.67;;;;;;;;;;5103979;28;20040;-67
2021/08/04 04:53:33;;;;;;;6.22;3.75;;;;;;;;;;5112696;28;20044;-67
2021/08/04 04:55:59;;;;;;;6.80;3.25;;;;;;;;;;5108739;28;20036;-68
2021/08/04 04:58:25;;;;;;;3.85;3.40;;;;;;;;;;5111182;28;20039;-68
2021/08/04 05:00:51;;;;;;;3.47;3.17;;;;;;;;;;5106132;28;20110;-68
2021/08/04 05:03:17;;;;;;;4.05;3.47;;;;;;;;;;5116763;28;20073;-68
2021/08/04 05:05:43;;;;;;;3.80;3.40;;;;;;;;;;5114870;28;20428;-68
2021/08/04 05:08:10;;;;;;;4.55;3.60;;;;;;;;;;5107642;28;20034;-68
2021/08/04 05:10:36;;;;;;;3.60;3.30;;;;;;;;;;5114169;28;20443;-68
2021/08/04 05:13:02;;;;;;;6.32;4.55;;;;;;;;;;5106891;28;20036;-68
2021/08/04 05:15:29;;;;;;;3.60;3.28;;;;;;;;;;5112216;28;20536;-68
2021/08/04 05:17:55;;;;;;;4.63;3.05;;;;;;;;;;5103191;28;20044;-68
2021/08/04 05:20:21;;;;;;;4.43;3.47;;;;;;;;;;5113217;28;20487;-68
2021/08/04 05:22:48;;;;;;;4.35;3.30;;;;;;;;;;5105453;28;20142;-68
2021/08/04 05:25:14;;;;;;;3.95;3.00;;;;;;;;;;5108878;28;20158;-68
2021/08/04 05:27:40;;;;;;;3.85;2.88;;;;;;;;;;5106315;28;20092;-68
2021/08/04 05:30:07;;;;;;;3.85;2.50;;;;;;;;;;5112584;28;20085;-68
2021/08/04 05:32:33;;;;;;;3.03;2.20;;;;;;;;;;5104796;28;20047;-68
2021/08/04 05:34:59;;;;;;;3.00;2.45;;;;;;;;;;5109953;28;20028;-68
2021/08/04 05:37:25;;;;;;;4.63;2.40;;;;;;;;;;5105870;28;20441;-68
2021/08/04 05:39:52;;;;;;;3.83;2.40;;;;;;;;;;5116496;28;20065;-68
2021/08/04 05:42:18;;;;;;;3.22;2.53;;;;;;;;;;5107972;28;20600;-68
2021/08/04 05:44:44;;;;;;;3.08;2.08;;;;;;;;;;5085152;28;20122;-68
2021/08/04 05:47:11;;;;;;;4.15;2.30;;;;;;;;;;5117131;28;20475;-68
2021/08/04 05:49:37;;;;;;;3.85;2.20;;;;;;;;;;5111384;27;20476;-68
2021/08/04 05:52:03;;;;;;;5.60;2.47;;;;;;;;;;5111430;27;20047;-68
2021/08/04 05:54:30;;;;;;;4.75;2.25;;;;;;;;;;5105994;27;20123;-68
2021/08/04 05:56:56;;;;;;;2.30;2.10;;;;;;;;;;5116936;27;20102;-68
2021/08/04 05:59:22;;;;;;;2.85;2.13;;;;;;;;;;5093479;27;20039;-68
2021/08/04 06:01:48;;;;;;;3.20;2.15;;;;;;;;;;5117071;27;20043;-68
2021/08/04 06:04:14;;;;;;;3.65;2.30;;;;;;;;;;5109543;27;20487;-68
2021/08/04 06:06:40;;;;;;;2.47;1.90;;;;;;;;;;5124419;27;20420;-68
2021/08/04 06:09:07;;;;;;;2.47;2.00;;;;;;;;;;5108335;27;20038;-69
2021/08/04 06:11:33;;;;;;;3.33;1.70;;;;;;;;;;5118546;27;20027;-69
2021/08/04 06:13:59;;;;;;;3.08;1.80;;;;;;;;;;5109857;27;20118;-69
2021/08/04 06:16:25;;;;;;;2.40;1.67;;;;;;;;;;5114374;27;20043;-69
2021/08/04 06:18:51;;;;;;;4.32;2.05;;;;;;;;;;5110085;27;20035;-69
2021/08/04 06:21:19;;;;;;;3.70;1.67;;;;;;;;;;5116763;27;20051;-69
2021/08/04 06:23:48;;;;;;;2.65;1.90;;;;;;;;;;5086236;27;20048;-69
2021/08/04 06:26:14;;;;;;;3.20;1.85;;;;;;;;;;5108665;27;20172;-69
2021/08/04 06:28:41;;;;;;;3.80;1.90;;;;;;;;;;5111665;27;20070;-69
2021/08/04 06:31:07;;;;;;;3.33;2.08;;;;;;;;;;5108528;27;20580;-69
2021/08/04 06:33:35;;;;;;;2.38;1.70;;;;;;;;;;5119278;27;20042;-69
2021/08/04 06:36:01;;;;;;;3.17;1.90;;;;;;;;;;5109464;27;20448;-69
2021/08/04 06:38:27;;;;;;;4.65;2.00;;;;;;;;;;5111155;27;20431;-69
2021/08/04 06:40:53;;;;;;;3.10;2.03;;;;;;;;;;5113207;27;20036;-69
2021/08/04 06:43:20;;;;;;;3.05;1.75;;;;;;;;;;5118329;27;20050;-69
2021/08/04 06:45:46;;;;;;;2.28;1.45;;;;;;;;;;5108941;27;20090;-69
2021/08/04 06:48:12;;;;;;;2.97;1.58;;;;;;;;;;5118148;27;20416;-69
2021/08/04 06:50:39;;;;;;;2.67;1.60;;;;;;;;;;5110070;27;20050;-69
2021/08/04 06:53:05;;;;;;;2.17;1.02;;;;;;;;;;5111372;27;20101;-69
2021/08/04 06:55:31;;;;;;;2.15;1.35;;;;;;;;;;5107610;27;20073;-69
2021/08/04 06:57:57;;;;;;;2.67;1.50;;;;;;;;;;5118066;27;20032;-69
2021/08/04 07:00:24;;;;;;;2.15;1.20;;;;;;;;;;5111451;27;20466;-69
2021/08/04 07:02:50;;;;;;;2.03;1.08;;;;;;;;;;5110940;27;20046;-69
2021/08/04 07:05:17;;;;;;;1.25;1.00;;;;;;;;;;5113267;27;20036;-69
2021/08/04 07:07:44;;;;;;;4.32;1.10;;;;;;;;;;5092343;27;20083;-69
2021/08/04 07:10:10;;;;;;;2.78;0.88;;;;;;;;;;5114325;27;20104;-69
2021/08/04 07:12:37;;;;;;;3.05;0.98;;;;;;;;;;5106789;27;20154;-69
2021/08/04 07:15:04;;;;;;;2.22;1.02;;;;;;;;;;5112761;27;20037;-68
2021/08/04 07:17:30;;;;;;;2.55;0.88;;;;;;;;;;5111583;27;20507;-68
2021/08/04 07:19:56;;;;;;;1.27;0.65;;;;;;;;;;5108307;27;20403;-68
2021/08/04 07:22:22;;;;;;;2.83;0.70;;;;;;;;;;5105135;27;20035;-68
2021/08/04 07:24:48;;;;;;;1.80;0.50;;;;;;;;;;5110195;27;20364;-68
2021/08/04 07:27:14;;;;;;;1.40;0.60;;;;;;;;;;5110405;27;20028;-69
2021/08/04 07:29:40;;;;;;;0.70;0.55;;;;;;;;;;5111455;27;20109;-69
2021/08/04 07:32:07;;;;;;;2.00;0.70;;;;;;;;;;5105609;27;20061;-69
2021/08/04 07:34:33;;;;;;;2.40;0.50;;;;;;;;;;5122261;27;20117;-69
2021/08/04 07:36:59;;;;;;;1.52;0.70;;;;;;;;;;5105739;27;20567;-69
2021/08/04 07:39:25;;;;;;;4.03;0.52;;;;;;;;;;5113031;27;20091;-69
2021/08/04 07:41:51;;;;;;;1.00;0.57;;;;;;;;;;5113595;27;20046;-69
2021/08/04 07:44:17;;;;;;;1.70;0.50;;;;;;;;;;5117840;27;20039;-70
2021/08/04 07:46:44;;;;;;;3.33;0.70;;;;;;;;;;5113057;27;20132;-70
2021/08/04 07:49:10;;;;;;;1.00;0.60;;;;;;;;;;5102328;27;20045;-70
2021/08/04 07:51:36;;;;;;;0.75;0.40;;;;;;;;;;5120648;27;20046;-70
2021/08/04 07:54:03;;;;;;;2.28;0.43;;;;;;;;;;5114963;27;20031;-69
2021/08/04 07:56:29;;;;;;;1.08;0.43;;;;;;;;;;5113077;27;20062;-69
2021/08/04 07:59:02;;;;;;;1.17;0.50;;;;;;;;;;5108183;27;20036;-70
2021/08/04 08:01:28;;;;;;;1.00;0.45;;;;;;;;;;5117553;27;20161;-69
2021/08/04 08:03:54;;;;;;;2.03;0.50;;;;;;;;;;5108455;27;20074;-69
2021/08/04 08:06:20;;;;;;;1.50;0.63;;;;;;;;;;5113085;27;20066;-69
2021/08/04 08:08:46;;;;;;;2.88;0.77;;;;;;;;;;5106185;27;20085;-69
2021/08/04 08:11:12;;;;;;;1.17;0.40;;;;;;;;;;5114901;27;20737;-69
2021/08/04 08:13:38;;;;;;;2.88;0.77;;;;;;;;;;5097395;27;20483;-69
2021/08/04 08:16:05;;;;;;;1.67;0.60;;;;;;;;;;5112516;27;20032;-70
2021/08/04 08:18:31;;;;;;;1.02;0.70;;;;;;;;;;5111102;27;20093;-69
2021/08/04 08:20:57;;;;;;;1.20;0.65;;;;;;;;;;5110451;27;20031;-69
2021/08/04 08:23:23;;;;;;;2.30;0.60;;;;;;;;;;5107673;27;20070;-70
2021/08/04 08:25:49;;;;;;;1.42;0.60;;;;;;;;;;5107574;27;20054;-70
2021/08/04 08:28:16;;;;;;;1.73;0.63;;;;;;;;;;5116216;27;20069;-71
2021/08/04 08:30:42;;;;;;;1.60;0.50;;;;;;;;;;5111726;27;20107;-71
2021/08/04 08:33:08;;;;;;;1.23;0.60;;;;;;;;;;5107931;28;20503;-71
2021/08/04 08:35:35;;;;;;;1.88;0.70;;;;;;;;;;5106999;27;20055;-71
2021/08/04 08:38:01;;;;;;;1.10;0.60;;;;;;;;;;5116883;28;20054;-71
2021/08/04 08:40:27;;;;;;;1.27;0.90;;;;;;;;;;5109500;28;20479;-70
2021/08/04 08:42:55;;;;;;;2.80;1.05;;;;;;;;;;5108610;27;20077;-71
2021/08/04 08:45:21;;;;;;;2.28;0.77;;;;;;;;;;5113606;27;20074;-71
2021/08/04 08:47:48;;;;;;;1.42;0.40;;;;;;;;;;5114477;28;20511;-71
2021/08/04 08:50:15;;;;;;;1.48;0.70;;;;;;;;;;5104501;28;20036;-71
2021/08/04 08:52:41;;;;;;;1.52;0.73;;;;;;;;;;5114203;28;20059;-70
2021/08/04 08:55:11;;;;;;;1.25;0.80;;;;;;;;;;5108733;28;20044;-71
2021/08/04 08:57:37;;;;;;;1.20;0.80;;;;;;;;;;5114802;28;20052;-71
2021/08/04 09:00:04;;;;;;;2.63;0.73;;;;;;;;;;5106610;28;20038;-71
2021/08/04 09:02:30;;;;;;;1.10;0.65;;;;;;;;;;5116126;28;20039;-71
2021/08/04 09:05:00;;;;;;;0.95;0.80;;;;;;;;;;5114921;28;20127;-71
2021/08/04 09:07:38;;;;;;;1.85;0.70;;;;;;;;;;5105603;28;20032;-71
2021/08/04 09:10:25;;;;;;;0.90;0.55;;;;;;;;;;5089935;28;20118;-71
2021/08/04 09:12:52;;;;;;;2.90;0.60;;;;;;;;;;5115176;28;20046;-71
2021/08/04 09:15:28;;;;;;;2.42;0.60;;;;;;;;;;5116939;28;20046;-71
2021/08/04 09:18:14;;;;;;;0.98;0.52;;;;;;;;;;5114444;28;20074;-71
2021/08/04 09:20:54;;;;;;;1.80;0.73;;;;;;;;;;5107720;28;20031;-71
2021/08/04 09:23:21;;;;;;;1.95;0.80;;;;;;;;;;5108782;28;20472;-71
2021/08/04 09:26:03;;;;;;;1.33;0.80;;;;;;;;;;5118881;27;20654;-71
2021/08/04 09:28:30;;;;;;;1.50;0.90;;;;;;;;;;5118397;27;20110;-71
2021/08/04 09:31:03;;;;;;;1.60;1.00;;;;;;;;;;5114613;27;20031;-71
2021/08/04 09:33:39;;;;;;;1.55;0.85;;;;;;;;;;5113383;27;20476;-71
2021/08/04 09:36:05;;;;;;;1.45;0.98;;;;;;;;;;5120557;27;20040;-71
2021/08/04 09:38:31;;;;;;;2.20;1.00;;;;;;;;;;5111477;27;20047;-71
2021/08/04 09:41:18;;;;;;;2.42;1.27;;;;;;;;;;5115529;27;20548;-71
2021/08/04 09:43:48;;;;;;;1.50;0.95;;;;;;;;;;5101887;27;20036;-71
2021/08/04 09:46:22;;;;;;;3.10;1.20;;;;;;;;;;5102690;27;20103;-71
2021/08/04 09:48:48;;;;;;;1.73;0.90;;;;;;;;;;5113804;27;20526;-71
2021/08/04 09:51:16;;;;;;;1.58;0.80;;;;;;;;;;5114315;27;20031;-71
2021/08/04 09:53:48;;;;;;;1.13;0.80;;;;;;;;;;5107535;27;20055;-71
2021/08/04 09:56:14;;;;;;;1.63;1.08;;;;;;;;;;5118339;27;20055;-71
2021/08/04 09:58:45;;;;;;;1.58;1.00;;;;;;;;;;5111132;27;20031;-71
2021/08/04 10:01:13;;;;;;;2.70;1.20;;;;;;;;;;5113512;27;20040;-71
2021/08/04 10:03:57;;;;;;;2.78;1.40;;;;;;;;;;5109329;27;20047;-71
2021/08/04 10:06:23;;;;;;;1.98;1.17;;;;;;;;;;5120959;27;20479;-71
2021/08/04 10:08:49;;;;;;;1.67;1.15;;;;;;;;;;5112233;27;20036;-71
2021/08/04 10:11:16;;;;;;;2.90;1.15;;;;;;;;;;5113246;27;20035;-71
2021/08/04 10:13:42;;;;;;;3.28;1.05;;;;;;;;;;5110467;27;20548;-70
2021/08/04 10:16:08;;;;;;;1.30;0.95;;;;;;;;;;5119858;27;20061;-71
2021/08/04 10:18:35;;;;;;;2.35;1.20;;;;;;;;;;5095080;27;20043;-71
2021/08/04 10:21:04;;;;;;;3.40;1.10;;;;;;;;;;5110248;27;20556;-71
2021/08/04 10:23:31;;;;;;;2.53;1.27;;;;;;;;;;5107222;27;20103;-71
2021/08/04 10:25:57;;;;;;;1.60;0.93;;;;;;;;;;5120510;27;20035;-71
2021/08/04 10:28:25;;;;;;;2.67;1.23;;;;;;;;;;5107831;27;20432;-71
2021/08/04 10:30:51;;;;;;;2.10;1.38;;;;;;;;;;5117397;27;20036;-71
2021/08/04 10:33:18;;;;;;;1.88;1.20;;;;;;;;;;5117285;27;20464;-71
2021/08/04 10:35:46;;;;;;;2.08;1.30;;;;;;;;;;5110799;27;20054;-71
2021/08/04 10:38:19;;;;;;;2.88;1.20;;;;;;;;;;5088638;27;20054;-71
2021/08/04 10:40:45;;;;;;;1.63;0.80;;;;;;;;;;5104744;27;20027;-70
2021/08/04 10:43:44;;;;;;;2.22;0.93;;;;;;;;;;5113808;27;20727;-71
2021/08/04 10:46:29;;;;;;;2.55;1.08;;;;;;;;;;5058132;27;20062;-71
2021/08/04 10:48:55;;;;;;;1.27;0.75;;;;;;;;;;5086951;28;20035;-71
2021/08/04 10:51:22;;;;;;;2.42;0.70;;;;;;;;;;5102300;27;20032;-71
2021/08/04 10:54:14;;;;;;;0.98;0.70;;;;;;;;;;5113739;27;20059;-70
2021/08/04 10:56:43;;;;;;;0.98;0.65;;;;;;;;;;5115222;27;20044;-71
2021/08/04 10:59:13;;;;;;;1.52;0.68;;;;;;;;;;5116926;27;20035;-71
2021/08/04 11:01:48;;;;;;;2.10;0.65;;;;;;;;;;5103074;27;20046;-70
2021/08/04 11:04:26;;;;;;;1.77;0.70;;;;;;;;;;5116440;27;20075;-70
2021/08/04 11:07:13;;;;;;;2.05;0.63;;;;;;;;;;5110410;27;20027;-70
2021/08/04 11:09:43;;;;;;;1.60;0.77;;;;;;;;;;5122287;27;20039;-70
2021/08/04 11:12:10;;;;;;;1.52;0.50;;;;;;;;;;5106871;27;20032;-70
2021/08/04 11:14:56;;;;;;;0.80;0.50;;;;;;;;;;5112373;27;20039;-70
2021/08/04 11:17:26;;;;;;;2.80;0.50;;;;;;;;;;5110423;27;20062;-70
2021/08/04 11:20:05;;;;;;;0.80;0.47;;;;;;;;;;5117864;27;20032;-70
2021/08/04 11:22:35;;;;;;;1.00;0.63;;;;;;;;;;5108933;27;20114;-70
2021/08/04 11:25:08;;;;;;;1.33;0.50;;;;;;;;;;5112259;27;20059;-70
2021/08/04 11:27:36;;;;;;;2.10;0.70;;;;;;;;;;5102762;27;20035;-70
2021/08/04 11:30:03;;;;;;;3.33;0.75;;;;;;;;;;5116742;27;20067;-69
2021/08/04 11:32:31;;;;;;;1.80;0.70;;;;;;;;;;5108584;27;20138;-69
2021/08/04 11:34:57;;;;;;;0.93;0.50;;;;;;;;;;5112078;27;20031;-69
2021/08/04 11:37:25;;;;;;;0.80;0.50;;;;;;;;;;5109344;27;20376;-69
2021/08/04 11:39:54;;;;;;;0.88;0.47;;;;;;;;;;5118630;27;20031;-69
2021/08/04 11:42:21;;;;;;;2.45;0.52;;;;;;;;;;5089992;27;20505;-69
2021/08/04 11:44:47;;;;;;;1.05;0.60;;;;;;;;;;5111249;27;20067;-69
2021/08/04 11:47:14;;;;;;;1.95;0.60;;;;;;;;;;5108230;27;20040;-69
2021/08/04 11:49:41;;;;;;;1.52;0.60;;;;;;;;;;5117152;27;20392;-70
2021/08/04 11:52:12;;;;;;;1.48;0.63;;;;;;;;;;5085192;27;20402;-70
2021/08/04 11:54:40;;;;;;;1.33;0.50;;;;;;;;;;5114786;27;20031;-70
2021/08/04 11:57:08;;;;;;;1.15;0.50;;;;;;;;;;5107200;27;20052;-70
2021/08/04 11:59:44;;;;;;;0.90;0.60;;;;;;;;;;5114619;27;20442;-69
2021/08/04 12:02:10;;;;;;;1.13;0.70;;;;;;;;;;5110843;27;20469;-69
2021/08/04 12:04:44;;;;;;;3.42;0.90;;;;;;;;;;5116003;27;20075;-69
2021/08/04 12:07:10;;;;;;;1.67;0.52;;;;;;;;;;5114313;27;20032;-69
2021/08/04 12:09:38;;;;;;;1.10;0.47;;;;;;;;;;5113919;27;20384;-69
2021/08/04 12:12:05;;;;;;;1.23;0.60;;;;;;;;;;5113414;27;20032;-70
2021/08/04 12:14:32;;;;;;;1.77;0.57;;;;;;;;;;5086460;28;20039;-70
2021/08/04 12:17:00;;;;;;;2.30;0.60;;;;;;;;;;5115537;27;20039;-70
2021/08/04 12:19:55;;;;;;;1.70;0.60;;;;;;;;;;5109386;27;20031;-70
2021/08/04 12:22:24;;;;;;;0.75;0.47;;;;;;;;;;5100398;27;20055;-70
2021/08/04 12:24:54;;;;;;;1.48;0.60;;;;;;;;;;5077517;28;20031;-70
2021/08/04 12:27:38;;;;;;;2.25;0.57;;;;;;;;;;5115689;27;20093;-70
2021/08/04 12:30:18;;;;;;;1.42;0.60;;;;;;;;;;5113008;27;20076;-70
2021/08/04 12:33:04;;;;;;;1.27;0.50;;;;;;;;;;5107741;28;20058;-70
2021/08/04 12:35:43;;;;;;;2.47;0.70;;;;;;;;;;5088464;28;20499;-70
2021/08/04 12:38:14;;;;;;;1.38;0.55;;;;;;;;;;5112202;27;20036;-70
2021/08/04 12:40:41;;;;;;;2.63;0.50;;;;;;;;;;5113196;27;20032;-70
2021/08/04 12:43:11;;;;;;;1.58;0.40;;;;;;;;;;5109021;28;20118;-70
2021/08/04 12:45:44;;;;;;;2.78;0.70;;;;;;;;;;5104363;27;20036;-70
2021/08/04 12:48:10;;;;;;;2.50;1.15;;;;;;;;;;5112885;28;20132;-70
2021/08/04 12:50:55;;;;;;;2.90;1.00;;;;;;;;;;5110878;28;20441;-68
2021/08/04 12:53:41;;;;;;;8.60;3.00;;;;;;;;;;5113416;28;20044;-70
2021/08/04 12:56:09;;;;;;;3.08;1.17;;;;;;;;;;5104389;28;20047;-70
2021/08/04 12:58:54;;;;;;;16.73;3.92;;;;;;;;;;5113400;28;20111;-70
2021/08/04 13:01:21;;;;;;;1.92;0.80;;;;;;;;;;5112055;27;20107;-70
2021/08/04 13:03:50;;;;;;;2.60;0.73;;;;;;;;;;5119359;27;20054;-69
2021/08/04 13:06:17;;;;;;;2.47;0.80;;;;;;;;;;5110673;27;20114;-69
2021/08/04 13:08:43;;;;;;;2.58;0.50;;;;;;;;;;5113769;27;20039;-69
2021/08/04 13:11:27;;;;;;;2.75;1.25;;;;;;;;;;5108303;27;20041;-69
2021/08/04 13:13:53;;;;;;;;;;;;;;;;;;5120595;27;20039;-69
2021/08/04 13:16:29;;;;;;;2.78;0.60;;;;;;;;;;5103748;27;19950;-69
2021/08/04 13:18:55;;;;;;;1.55;0.70;;;;;;;;;;5110541;27;20400;-69
2021/08/04 13:21:22;;;;;;;1.75;0.50;;;;;;;;;;5117255;27;20119;-69
2021/08/04 13:23:48;;;;;;;2.38;0.70;;;;;;;;;;5116922;27;20513;-69
2021/08/04 13:26:14;;;;;;;2.08;0.60;;;;;;;;;;5104097;27;20055;-69
2021/08/04 13:28:43;;;;;;;1.45;0.50;;;;;;;;;;5115369;27;20035;-69
2021/08/04 13:31:13;;;;;;;2.40;0.60;;;;;;;;;;5115857;27;20023;-69
2021/08/04 13:33:41;;;;;;;2.20;0.60;;;;;;;;;;5115437;27;20044;-69
2021/08/04 13:36:07;;;;;;;2.15;0.60;;;;;;;;;;5105096;27;20135;-69
2021/08/04 13:38:34;;;;;;;1.73;0.70;;;;;;;;;;5116545;27;20548;-69
2021/08/04 13:41:00;;;;;;;1.13;0.40;;;;;;;;;;5112633;27;20042;-69
2021/08/04 13:43:27;;;;;;;1.73;0.65;;;;;;;;;;5112810;27;20505;-69
2021/08/04 13:45:53;;;;;;;1.50;0.68;;;;;;;;;;5114976;27;20438;-69
2021/08/04 13:48:20;;;;;;;1.52;0.60;;;;;;;;;;5113082;27;20040;-69
2021/08/04 13:50:46;;;;;;;1.65;0.55;;;;;;;;;;5116232;27;20059;-69
2021/08/04 13:53:12;;;;;;;1.10;0.50;;;;;;;;;;5104124;27;20028;-69
2021/08/04 13:55:39;;;;;;;2.83;0.70;;;;;;;;;;5114439;27;20036;-69
2021/08/04 13:58:05;;;;;;;0.90;0.50;;;;;;;;;;5115991;27;20074;-69
2021/08/04 14:00:33;;;;;;;2.58;0.98;;;;;;;;;;5116938;27;20454;-69
2021/08/04 14:02:59;;;;;;;2.85;0.60;;;;;;;;;;5105160;27;20111;-69
2021/08/04 14:05:27;;;;;;;1.50;0.65;;;;;;;;;;5119008;27;20036;-69
2021/08/04 14:07:54;;;;;;;2.35;0.60;;;;;;;;;;5110494;27;20036;-69
2021/08/04 14:10:24;;;;;;;1.75;0.60;;;;;;;;;;5112329;27;20344;-69
2021/08/04 14:12:50;;;;;;;3.03;0.57;;;;;;;;;;5108636;27;20071;-69
2021/08/04 14:15:17;;;;;;;3.20;0.80;;;;;;;;;;5123284;27;20036;-69
2021/08/04 14:17:44;;;;;;;1.15;0.60;;;;;;;;;;5107853;27;20449;-69
2021/08/04 14:20:11;;;;;;;1.98;1.23;;;;;;;;;;5112152;27;20448;-68
2021/08/04 14:22:38;;;;;;;1.50;0.60;;;;;;;;;;5111425;27;20043;-69
2021/08/04 14:25:05;;;;;;;1.40;0.60;;;;;;;;;;5121223;27;20042;-69
2021/08/04 14:27:31;;;;;;;2.45;0.60;;;;;;;;;;5116194;27;20054;-69
2021/08/04 14:29:57;;;;;;;2.10;0.60;;;;;;;;;;5106975;27;20664;-70
2021/08/04 14:32:23;;;;;;;1.42;0.80;;;;;;;;;;5119645;27;20035;-70
2021/08/04 14:34:49;;;;;;;2.38;0.63;;;;;;;;;;5112450;27;20036;-70
2021/08/04 14:37:16;;;;;;;1.55;0.60;;;;;;;;;;5113421;27;20762;-70
2021/08/04 14:39:42;;;;;;;1.48;0.80;;;;;;;;;;5112650;27;20031;-69
2021/08/04 14:42:08;;;;;;;2.88;1.00;;;;;;;;;;5114334;27;20032;-69
2021/08/04 14:44:34;;;;;;;2.00;0.63;;;;;;;;;;5111327;27;20043;-69
2021/08/04 14:47:00;;;;;;;1.77;0.85;;;;;;;;;;5110557;27;20110;-69
2021/08/04 14:49:28;;;;;;;1.73;0.70;;;;;;;;;;5110202;27;20041;-69
2021/08/04 14:51:54;;;;;;;1.67;0.90;;;;;;;;;;5120088;27;20459;-69